createdAt,value
2022-10-21T00:00:19.252Z,58.28
2022-10-21T00:02:46.910Z,58.38
2022-10-21T00:05:14.286Z,58.39
2022-10-21T00:07:41.171Z,58.46
2022-10-21T00:10:09.200Z,58.56
2022-10-21T00:12:37.323Z,58.46
2022-10-21T00:15:06.432Z,58.29
2022-10-21T00:17:36.245Z,58.35
2022-10-21T00:20:05.521Z,58.54
2022-10-21T00:22:32.313Z,58.50
2022-10-21T00:24:59.312Z,58.41
2022-10-21T00:27:26.466Z,58.23
2022-10-21T00:29:53.305Z,58.12
2022-10-21T00:32:20.081Z,58.02
2022-10-21T00:34:47.413Z,58.07
2022-10-21T00:37:15.120Z,58.05
2022-10-21T00:39:42.096Z,58.14
2022-10-21T00:42:15.727Z,57.94
2022-10-21T00:44:42.820Z,57.78
2022-10-21T00:47:21.759Z,57.80
2022-10-21T00:49:59.453Z,57.40
2022-10-21T00:52:28.488Z,57.24
2022-10-21T00:54:56.991Z,57.05
2022-10-21T00:57:27.215Z,56.86
2022-10-21T00:59:57.958Z,56.71
2022-10-21T01:02:24.930Z,56.98
2022-10-21T01:04:59.579Z,57.09
2022-10-21T01:07:26.531Z,57.08
2022-10-21T01:09:53.334Z,56.56
2022-10-21T01:12:43.675Z,56.62
2022-10-21T01:15:21.602Z,56.55
2022-10-21T01:17:52.319Z,56.54
2022-10-21T01:20:31.899Z,56.67
2022-10-21T01:23:10.797Z,56.78
2022-10-21T01:26:08.245Z,56.80
2022-10-21T01:28:34.936Z,56.88
2022-10-21T01:31:13.006Z,57.36
2022-10-21T01:33:42.684Z,57.45
2022-10-21T01:36:25.431Z,57.75
2022-10-21T01:39:13.093Z,57.58
2022-10-21T01:41:43.470Z,57.49
2022-10-21T01:44:45.670Z,57.96
2022-10-21T01:47:25.656Z,57.88
2022-10-21T01:49:57.290Z,57.78
2022-10-21T01:52:24.401Z,57.90
2022-10-21T01:54:58.297Z,57.71
2022-10-21T01:57:29.705Z,57.96
2022-10-21T01:59:58.287Z,57.84
2022-10-21T02:02:30.380Z,58.00
2022-10-21T02:04:59.524Z,58.19
2022-10-21T02:07:26.347Z,58.30
2022-10-21T02:09:53.131Z,58.81
2022-10-21T02:12:22.520Z,58.97
2022-10-21T02:14:52.695Z,58.97
2022-10-21T02:17:22.704Z,59.02
2022-10-21T02:19:49.542Z,58.65
2022-10-21T02:22:21.966Z,58.59
2022-10-21T02:24:51.728Z,58.20
2022-10-21T02:27:19.485Z,58.25
2022-10-21T02:29:49.966Z,57.98
2022-10-21T02:32:45.862Z,57.81
2022-10-21T02:35:31.225Z,57.75
2022-10-21T02:38:13.373Z,57.67
2022-10-21T02:40:44.768Z,57.61
2022-10-21T02:43:20.655Z,57.67
2022-10-21T02:45:48.636Z,57.50
2022-10-21T02:48:15.839Z,57.49
2022-10-21T02:50:42.670Z,57.42
2022-10-21T02:53:11.148Z,57.57
2022-10-21T02:55:37.941Z,57.78
2022-10-21T02:58:04.909Z,57.76
2022-10-21T03:00:32.950Z,57.66
2022-10-21T03:03:00.288Z,57.70
2022-10-21T03:05:29.498Z,57.49
2022-10-21T03:07:56.659Z,57.49
2022-10-21T03:10:23.752Z,57.40
2022-10-21T03:12:53.146Z,57.34
2022-10-21T03:15:21.605Z,57.51
2022-10-21T03:17:49.012Z,57.46
2022-10-21T03:20:16.715Z,57.20
2022-10-21T03:22:47.285Z,57.04
2022-10-21T03:25:14.882Z,57.12
2022-10-21T03:31:23.905Z,57.05
2022-10-21T03:34:22.481Z,57.49
2022-10-21T03:37:05.903Z,57.90
2022-10-21T03:39:43.296Z,58.20
2022-10-21T03:42:34.014Z,58.78
2022-10-21T03:46:01.060Z,58.41
2022-10-21T03:48:31.025Z,58.42
2022-10-21T03:51:10.514Z,58.34
2022-10-21T03:53:43.418Z,58.43
2022-10-21T03:56:11.108Z,58.09
2022-10-21T03:58:37.933Z,58.14
2022-10-21T04:01:04.789Z,58.45
2022-10-21T04:03:37.155Z,58.75
2022-10-21T04:06:06.355Z,58.96
2022-10-21T04:08:33.514Z,58.94
2022-10-21T04:11:00.566Z,59.00
2022-10-21T04:13:27.375Z,59.35
2022-10-21T04:15:59.429Z,59.56
2022-10-21T04:18:26.564Z,59.49
2022-10-21T04:20:53.296Z,59.63
2022-10-21T04:23:20.068Z,59.72
2022-10-21T04:25:47.490Z,59.80
2022-10-21T04:28:14.276Z,59.77
2022-10-21T04:30:41.031Z,59.69
2022-10-21T04:33:07.907Z,59.70
2022-10-21T04:35:34.636Z,59.47
2022-10-21T04:38:02.682Z,59.16
2022-10-21T04:40:31.698Z,59.19
2022-10-21T04:42:58.449Z,59.26
2022-10-21T04:45:26.857Z,59.32
2022-10-21T04:47:53.887Z,59.18
2022-10-21T04:50:22.247Z,59.23
2022-10-21T04:52:51.617Z,59.69
2022-10-21T04:55:18.383Z,58.88
2022-10-21T04:57:45.135Z,59.14
2022-10-21T05:00:14.825Z,59.26
2022-10-21T05:02:42.062Z,59.27
2022-10-21T05:05:13.608Z,59.01
2022-10-21T05:07:44.961Z,58.92
2022-10-21T05:10:11.813Z,58.98
2022-10-21T05:12:38.613Z,59.08
2022-10-21T05:15:05.854Z,58.99
2022-10-21T05:17:32.785Z,58.85
2022-10-21T05:19:59.569Z,59.22
2022-10-21T05:22:26.327Z,59.38
2022-10-21T05:24:53.069Z,59.17
2022-10-21T05:27:19.898Z,59.28
2022-10-21T05:29:47.170Z,59.13
2022-10-21T05:32:14.011Z,59.21
2022-10-21T05:34:40.736Z,59.16
2022-10-21T05:37:07.559Z,59.59
2022-10-21T05:39:34.320Z,59.29
2022-10-21T05:42:01.104Z,59.57
2022-10-21T05:44:27.866Z,59.26
2022-10-21T05:46:54.931Z,59.77
2022-10-21T05:49:21.675Z,59.82
2022-10-21T05:51:48.429Z,59.83
2022-10-21T05:54:15.115Z,59.85
2022-10-21T05:56:42.686Z,59.87
2022-10-21T05:59:10.404Z,59.59
2022-10-21T06:01:37.989Z,60.00
2022-10-21T06:04:05.163Z,59.96
2022-10-21T06:06:32.041Z,59.99
2022-10-21T06:08:58.932Z,60.10
2022-10-21T06:11:25.665Z,60.24
2022-10-21T06:13:52.435Z,60.58
2022-10-21T06:16:19.189Z,60.60
2022-10-21T06:18:45.934Z,60.62
2022-10-21T06:21:12.879Z,60.70
2022-10-21T06:23:39.666Z,60.64
2022-10-21T06:26:09.333Z,60.69
2022-10-21T06:28:37.958Z,60.88
2022-10-21T06:31:06.274Z,60.75
2022-10-21T06:33:33.230Z,61.16
2022-10-21T06:36:00.043Z,61.36
2022-10-21T06:38:26.844Z,61.25
2022-10-21T06:41:01.447Z,61.74
2022-10-21T06:43:28.407Z,61.81
2022-10-21T06:46:03.190Z,62.14
2022-10-21T06:48:29.896Z,61.98
2022-10-21T06:51:02.942Z,62.33
2022-10-21T06:53:31.270Z,62.26
2022-10-21T06:56:10.630Z,62.48
2022-10-21T06:58:39.758Z,62.45
2022-10-21T07:01:21.543Z,62.83
2022-10-21T07:03:59.055Z,62.60
2022-10-21T07:06:26.161Z,62.53
2022-10-21T07:09:00.224Z,62.54
2022-10-21T07:11:28.077Z,62.64
2022-10-21T07:13:55.116Z,62.98
2022-10-21T07:16:27.448Z,63.14
2022-10-21T07:18:55.242Z,63.31
2022-10-21T07:21:25.168Z,63.49
2022-10-21T07:23:59.006Z,63.44
2022-10-21T07:26:28.333Z,63.25
2022-10-21T07:28:58.519Z,63.28
2022-10-21T07:31:25.704Z,63.00
2022-10-21T07:33:53.271Z,63.15
2022-10-21T07:36:26.277Z,63.11
2022-10-21T07:38:55.307Z,63.45
2022-10-21T07:41:25.621Z,63.54
2022-10-21T07:43:53.507Z,63.59
2022-10-21T07:46:21.995Z,63.77
2022-10-21T07:48:49.569Z,64.16
2022-10-21T07:51:20.542Z,64.46
2022-10-21T07:53:49.066Z,65.22
2022-10-21T07:56:20.962Z,64.35
2022-10-21T07:58:47.852Z,64.04
2022-10-21T08:01:16.406Z,64.43
2022-10-21T08:03:43.150Z,64.75
2022-10-21T08:06:11.388Z,64.40
2022-10-21T08:08:38.887Z,64.37
2022-10-21T08:11:06.827Z,64.49
2022-10-21T08:13:34.599Z,64.36
2022-10-21T08:16:02.178Z,64.46
2022-10-21T08:18:29.691Z,64.19
2022-10-21T08:20:56.450Z,63.68
2022-10-21T08:23:24.697Z,63.85
2022-10-21T08:25:56.370Z,63.98
2022-10-21T08:28:25.120Z,63.66
2022-10-21T08:30:52.610Z,63.79
2022-10-21T08:33:19.510Z,63.59
2022-10-21T08:35:46.538Z,63.68
2022-10-21T08:38:13.249Z,63.72
2022-10-21T08:40:51.002Z,64.11
2022-10-21T08:43:25.013Z,64.05
2022-10-21T08:46:03.196Z,64.19
2022-10-21T08:48:35.086Z,64.17
2022-10-21T08:51:06.170Z,64.03
2022-10-21T08:53:44.899Z,64.48
2022-10-21T08:56:18.693Z,64.33
2022-10-21T08:58:50.897Z,64.34
2022-10-21T09:01:26.850Z,64.17
2022-10-21T09:04:18.791Z,64.17
2022-10-21T09:07:09.075Z,64.51
2022-10-21T09:10:01.093Z,64.68
2022-10-21T09:12:58.504Z,64.69
2022-10-21T09:16:11.547Z,64.72
2022-10-21T09:18:50.626Z,64.90
2022-10-21T09:21:37.768Z,64.45
2022-10-21T09:24:18.343Z,64.62
2022-10-21T09:26:50.778Z,64.71
2022-10-21T09:29:36.398Z,64.57
2022-10-21T09:32:23.674Z,64.30
2022-10-21T09:35:00.269Z,63.85
2022-10-21T09:37:42.080Z,63.52
2022-10-21T09:40:26.285Z,63.48
2022-10-21T09:42:56.492Z,63.42
2022-10-21T09:45:32.014Z,63.64
2022-10-21T09:48:14.588Z,63.55
2022-10-21T09:50:41.866Z,63.63
2022-10-21T09:53:16.775Z,63.71
2022-10-21T09:55:48.540Z,63.52
2022-10-21T09:58:28.707Z,63.41
2022-10-21T10:00:56.236Z,63.53
2022-10-21T10:03:31.074Z,63.32
2022-10-21T10:05:58.440Z,63.42
2022-10-21T10:08:31.026Z,63.16
2022-10-21T10:11:09.974Z,63.63
2022-10-21T10:13:46.037Z,63.30
2022-10-21T10:16:32.777Z,63.82
2022-10-21T10:19:24.334Z,63.70
2022-10-21T10:22:13.970Z,63.84
2022-10-21T10:24:45.564Z,63.66
2022-10-21T10:27:23.578Z,63.84
2022-10-21T10:29:55.384Z,63.83
2022-10-21T10:32:25.139Z,64.21
2022-10-21T10:35:03.278Z,64.51
2022-10-21T10:37:34.736Z,65.37
2022-10-21T10:40:04.746Z,65.74
2022-10-21T10:42:35.736Z,66.01
2022-10-21T10:45:19.885Z,66.53
2022-10-21T10:47:50.763Z,66.55
2022-10-21T10:50:36.054Z,67.87
2022-10-21T10:53:30.557Z,68.71
2022-10-21T10:56:03.119Z,68.41
2022-10-21T10:58:33.526Z,68.54
2022-10-21T11:01:05.571Z,68.79
2022-10-21T11:03:44.908Z,69.69
2022-10-21T11:06:18.462Z,69.95
2022-10-21T11:08:54.604Z,70.23
2022-10-21T11:11:26.086Z,70.93
2022-10-21T11:13:54.079Z,71.17
2022-10-21T11:17:00.437Z,71.94
2022-10-21T11:19:46.142Z,72.03
2022-10-21T11:22:13.695Z,71.86
2022-10-21T11:24:51.350Z,72.09
2022-10-21T11:27:37.056Z,71.99
2022-10-21T11:30:28.794Z,73.04
2022-10-21T11:33:50.414Z,73.35
2022-10-21T11:36:23.464Z,72.86
2022-10-21T11:38:53.281Z,73.33
2022-10-21T11:41:35.525Z,74.23
2022-10-21T11:44:20.096Z,74.86
2022-10-21T11:46:58.299Z,75.24
2022-10-21T11:49:43.722Z,76.15
2022-10-21T11:52:34.143Z,75.67
2022-10-21T11:55:31.809Z,76.65
2022-10-21T11:58:02.774Z,76.43
2022-10-21T12:00:59.788Z,76.79
2022-10-21T12:03:56.592Z,78.19
2022-10-21T12:06:38.649Z,77.94
2022-10-21T12:09:32.403Z,79.46
2022-10-21T12:12:10.529Z,78.61
2022-10-21T12:15:02.581Z,79.27
2022-10-21T12:17:34.026Z,78.44
2022-10-21T12:20:04.903Z,79.27
2022-10-21T12:22:33.185Z,81.05
2022-10-21T12:25:14.858Z,79.14
2022-10-21T12:27:55.751Z,79.16
2022-10-21T12:30:31.545Z,80.29
2022-10-21T12:33:28.737Z,79.14
2022-10-21T12:36:19.283Z,79.61
2022-10-21T12:38:51.185Z,78.87
2022-10-21T12:41:23.798Z,78.55
2022-10-21T12:44:05.393Z,79.63
2022-10-21T12:46:44.316Z,79.23
2022-10-21T12:49:33.599Z,79.36
2022-10-21T12:52:03.223Z,79.19
2022-10-21T12:54:37.449Z,78.89
2022-10-21T12:57:10.097Z,78.98
2022-10-21T12:59:41.984Z,78.58
2022-10-21T13:02:19.920Z,78.90
2022-10-21T13:04:50.249Z,78.31
2022-10-21T13:07:16.894Z,78.28
2022-10-21T13:09:43.568Z,78.46
2022-10-21T13:12:10.237Z,78.59
2022-10-21T13:14:46.276Z,78.92
2022-10-21T13:17:22.266Z,78.79
2022-10-21T13:20:14.399Z,78.73
2022-10-21T13:22:43.644Z,78.82
2022-10-21T13:25:16.280Z,79.17
2022-10-21T13:27:47.919Z,79.49
2022-10-21T13:30:34.593Z,80.15
2022-10-21T13:33:06.292Z,79.59
2022-10-21T13:35:46.552Z,79.87
2022-10-21T13:38:27.660Z,80.12
2022-10-21T13:41:06.811Z,80.17
2022-10-21T13:43:47.238Z,80.58
2022-10-21T13:46:17.840Z,80.33
2022-10-21T13:48:47.638Z,80.50
2022-10-21T13:51:29.770Z,81.01
2022-10-21T13:54:00.430Z,80.92
2022-10-21T13:56:35.509Z,81.09
2022-10-21T13:59:03.499Z,81.49
2022-10-21T14:01:51.935Z,82.30
2022-10-21T14:04:23.343Z,82.75
2022-10-21T14:06:58.289Z,82.97
2022-10-21T14:09:32.428Z,83.58
2022-10-21T14:12:03.058Z,84.26
2022-10-21T14:14:32.385Z,84.40
2022-10-21T14:17:08.281Z,84.59
2022-10-21T14:19:38.707Z,84.41
2022-10-21T14:24:43.335Z,85.32
2022-10-21T14:27:14.614Z,87.23
2022-10-21T14:29:44.025Z,85.39
2022-10-21T14:32:20.142Z,85.42
2022-10-21T14:34:59.388Z,85.65
2022-10-21T14:37:26.141Z,85.21
2022-10-21T14:39:53.159Z,85.04
2022-10-21T14:42:23.419Z,85.32
2022-10-21T14:44:52.825Z,84.85
2022-10-21T14:47:24.021Z,84.63
2022-10-21T14:49:53.996Z,84.16
2022-10-21T14:52:36.392Z,84.06
2022-10-21T14:55:08.230Z,83.84
2022-10-21T14:57:47.715Z,83.72
2022-10-21T15:00:20.195Z,83.81
2022-10-21T15:02:48.823Z,83.93
2022-10-21T15:05:34.251Z,84.71
2022-10-21T15:08:30.780Z,85.30
2022-10-21T15:10:57.937Z,84.26
2022-10-21T15:13:26.873Z,84.27
2022-10-21T15:15:55.987Z,84.05
2022-10-21T15:18:43.208Z,84.37
2022-10-21T15:21:13.083Z,83.96
2022-10-21T15:23:42.520Z,83.93
2022-10-21T15:26:20.390Z,84.17
2022-10-21T15:28:47.503Z,83.53
2022-10-21T15:31:23.770Z,84.36
2022-10-21T15:33:52.245Z,84.38
2022-10-21T15:36:19.437Z,84.52
2022-10-21T15:38:47.570Z,84.81
2022-10-21T15:41:28.786Z,85.19
2022-10-21T15:44:01.840Z,85.08
2022-10-21T15:46:30.253Z,85.20
2022-10-21T15:48:58.624Z,84.91
2022-10-21T15:51:25.351Z,84.74
2022-10-21T15:53:52.116Z,84.42
2022-10-21T15:56:20.014Z,84.42
2022-10-21T15:58:46.865Z,84.53
2022-10-21T16:01:16.385Z,84.67
2022-10-21T16:03:44.814Z,84.87
2022-10-21T16:06:16.157Z,84.99
2022-10-21T16:08:43.687Z,84.76
2022-10-21T16:11:21.850Z,84.91
2022-10-21T16:13:56.718Z,84.56
2022-10-21T16:16:25.636Z,84.84
2022-10-21T16:18:53.454Z,84.93
2022-10-21T16:21:22.672Z,84.74
2022-10-21T16:23:50.147Z,85.12
2022-10-21T16:26:24.351Z,85.60
2022-10-21T16:28:52.438Z,85.18
2022-10-21T16:31:19.365Z,85.29
2022-10-21T16:33:46.094Z,85.35
2022-10-21T16:36:20.254Z,85.32
2022-10-21T16:38:47.569Z,85.36
2022-10-21T16:41:20.185Z,85.09
2022-10-21T16:43:47.645Z,85.20
2022-10-21T16:46:26.528Z,85.31
2022-10-21T16:48:54.047Z,85.16
2022-10-21T16:51:23.143Z,84.93
2022-10-21T16:53:50.251Z,84.66
2022-10-21T16:56:17.712Z,84.62
2022-10-21T16:58:44.850Z,84.73
2022-10-21T17:01:16.300Z,85.14
2022-10-21T17:03:43.039Z,84.89
2022-10-21T17:06:15.130Z,85.16
2022-10-21T17:08:42.543Z,84.87
2022-10-21T17:11:34.233Z,85.71
2022-10-21T17:14:02.872Z,85.04
2022-10-21T17:16:30.360Z,85.01
2022-10-21T17:18:57.468Z,85.32
2022-10-21T17:21:30.562Z,85.51
2022-10-21T17:23:58.758Z,85.45
2022-10-21T17:26:25.876Z,85.41
2022-10-21T17:28:53.859Z,85.17
2022-10-21T17:31:26.267Z,85.32
2022-10-21T17:33:58.816Z,85.09
2022-10-21T17:36:25.710Z,84.95
2022-10-21T17:38:52.410Z,84.82
2022-10-21T17:41:20.553Z,84.91
2022-10-21T17:43:47.721Z,85.27
2022-10-21T17:46:22.840Z,85.08
2022-10-21T17:48:54.385Z,85.07
2022-10-21T17:51:23.215Z,85.10
2022-10-21T17:53:51.598Z,85.05
2022-10-21T17:56:19.461Z,85.03
2022-10-21T17:58:50.327Z,85.02
2022-10-21T18:01:17.421Z,84.95
2022-10-21T18:03:44.950Z,84.73
2022-10-21T18:06:13.568Z,85.01
2022-10-21T18:08:40.493Z,84.91
2022-10-21T18:11:12.638Z,84.86
2022-10-21T18:13:40.484Z,84.82
2022-10-21T18:16:09.798Z,84.75
2022-10-21T18:18:37.918Z,84.59
2022-10-21T18:21:10.970Z,84.58
2022-10-21T18:23:39.923Z,84.35
2022-10-21T18:26:09.177Z,84.19
2022-10-21T18:28:36.003Z,84.16
2022-10-21T18:31:04.782Z,84.30
2022-10-21T18:33:32.215Z,84.42
2022-10-21T18:36:14.006Z,84.80
2022-10-21T18:38:40.869Z,84.27
2022-10-21T18:41:26.350Z,84.40
2022-10-21T18:43:55.914Z,84.46
2022-10-21T18:46:23.355Z,84.30
2022-10-21T18:48:50.096Z,84.15
2022-10-21T18:51:19.027Z,84.21
2022-10-21T18:53:49.880Z,84.21
2022-10-21T18:56:20.820Z,84.05
2022-10-21T18:58:47.745Z,84.15
2022-10-21T19:01:17.943Z,84.65
2022-10-21T19:03:45.153Z,84.79
2022-10-21T19:06:33.090Z,85.05
2022-10-21T19:09:03.418Z,84.71
2022-10-21T19:11:30.295Z,84.78
2022-10-21T19:13:57.684Z,84.88
2022-10-21T19:16:24.516Z,85.15
2022-10-21T19:18:51.441Z,84.95
2022-10-21T19:21:20.267Z,85.18
2022-10-21T19:23:47.074Z,85.20
2022-10-21T19:26:14.643Z,85.44
2022-10-21T19:28:41.476Z,85.34
2022-10-21T19:31:11.127Z,85.42
2022-10-21T19:33:39.369Z,85.50
2022-10-21T19:36:07.507Z,85.38
2022-10-21T19:38:51.047Z,85.33
2022-10-21T19:41:22.152Z,85.37
2022-10-21T19:43:51.884Z,85.11
2022-10-21T19:46:24.857Z,85.03
2022-10-21T19:48:53.372Z,85.19
2022-10-21T19:51:22.366Z,85.06
2022-10-21T19:53:50.379Z,85.12
2022-10-21T19:56:20.921Z,85.08
2022-10-21T19:58:50.873Z,85.02
2022-10-21T20:01:20.747Z,85.28
2022-10-21T20:03:49.491Z,85.39
